Time;durP1;ratioP1;P1;durP2;ratioP2;P2;SDS_P1;SDS_P2;PMS_P1;PMS_P2;Temp;Humidity;BMP_temperature;BMP_pressure;BME280_temperature;BME280_humidity;BME280_pressure;Samples;Min_cycle;Max_cycle;Signal;HPM_P1;HPM_P2
2020/12/22 00:01:48;;;;;;;2.03;0.40;;;18.40;59.60;;;;;;5002521;28;20231;-61
2020/12/22 00:04:15;;;;;;;0.60;0.60;;;18.30;59.60;;;;;;5001965;28;20600;-60
2020/12/22 00:06:42;;;;;;;0.57;0.47;;;18.30;59.60;;;;;;5020828;28;20218;-60
2020/12/22 00:09:08;;;;;;;1.23;0.50;;;18.30;59.70;;;;;;5023282;28;20753;-60
2020/12/22 00:11:34;;;;;;;0.60;0.40;;;18.30;59.60;;;;;;5012580;28;20234;-61
2020/12/22 00:14:00;;;;;;;1.40;0.60;;;18.30;59.80;;;;;;5004531;28;20243;-58
2020/12/22 00:16:36;;;;;;;4.10;0.40;;;18.30;59.60;;;;;;5008252;28;20231;-60
2020/12/22 00:19:04;;;;;;;0.50;0.43;;;18.20;59.60;;;;;;5005081;28;20227;-60
2020/12/22 00:21:32;;;;;;;0.50;0.50;;;18.20;60.10;;;;;;5001131;28;20243;-59
2020/12/22 00:23:59;;;;;;;0.67;0.53;;;18.20;59.80;;;;;;5005730;28;20222;-59
2020/12/22 00:26:25;;;;;;;3.80;0.87;;;18.20;59.90;;;;;;4996845;28;20231;-60
2020/12/22 00:28:52;;;;;;;0.60;0.40;;;18.20;60.00;;;;;;5005748;28;20239;-60
2020/12/22 00:31:19;;;;;;;0.30;0.30;;;18.20;60.00;;;;;;4997289;28;20215;-61
2020/12/22 00:33:45;;;;;;;0.40;0.40;;;18.20;60.00;;;;;;5005597;28;20224;-61
2020/12/22 00:36:11;;;;;;;0.60;0.40;;;18.20;60.10;;;;;;4998446;28;20883;-60
2020/12/22 00:38:38;;;;;;;0.40;0.40;;;18.20;60.30;;;;;;5005204;28;20218;-61
2020/12/22 00:41:05;;;;;;;0.50;0.40;;;18.20;60.00;;;;;;4997577;28;20227;-60
2020/12/22 00:43:31;;;;;;;0.70;0.50;;;18.20;60.00;;;;;;5006170;28;20216;-60
2020/12/22 00:45:57;;;;;;;0.77;0.40;;;18.10;60.00;;;;;;5014764;28;20223;-61
2020/12/22 00:48:27;;;;;;;0.50;0.47;;;18.10;60.40;;;;;;5024347;28;20226;-61
2020/12/22 00:50:53;;;;;;;0.30;0.30;;;18.20;60.30;;;;;;5021827;28;20219;-61
2020/12/22 00:53:19;;;;;;;1.03;0.30;;;18.10;60.00;;;;;;5017519;28;20219;-60
2020/12/22 00:55:45;;;;;;;0.60;0.40;;;18.10;60.10;;;;;;5022935;28;20227;-60
2020/12/22 00:58:12;;;;;;;0.70;0.40;;;18.10;60.80;;;;;;5003650;28;20219;-60
2020/12/22 01:00:39;;;;;;;0.60;0.37;;;18.10;60.50;;;;;;5008969;28;20211;-61
2020/12/22 01:03:06;;;;;;;0.40;0.40;;;18.10;60.80;;;;;;4997701;28;20278;-60
2020/12/22 01:05:32;;;;;;;0.87;0.40;;;18.10;60.70;;;;;;5007550;28;20224;-60
2020/12/22 01:07:59;;;;;;;0.63;0.43;;;18.10;60.70;;;;;;5000401;28;20231;-59
2020/12/22 01:10:25;;;;;;;0.70;0.40;;;18.10;60.90;;;;;;5008140;28;20598;-59
2020/12/22 01:12:53;;;;;;;0.70;0.50;;;18.10;61.00;;;;;;5000889;28;20231;-61
2020/12/22 01:15:20;;;;;;;0.77;0.40;;;18.10;61.10;;;;;;5008158;28;20230;-60
2020/12/22 01:17:47;;;;;;;0.70;0.50;;;18.10;61.10;;;;;;5000316;28;20224;-61
2020/12/22 01:20:14;;;;;;;0.43;0.30;;;18.10;60.80;;;;;;5009782;28;20282;-60
2020/12/22 01:22:40;;;;;;;0.60;0.60;;;18.10;61.00;;;;;;5000862;28;20266;-61
2020/12/22 01:25:07;;;;;;;0.83;0.50;;;18.10;61.00;;;;;;5007661;28;20696;-59
2020/12/22 01:27:33;;;;;;;0.50;0.30;;;18.10;60.80;;;;;;5003529;28;20223;-61
2020/12/22 01:29:59;;;;;;;1.17;0.50;;;18.10;61.20;;;;;;5007963;28;20227;-60
2020/12/22 01:32:25;;;;;;;0.80;0.40;;;18.10;61.50;;;;;;5011919;28;20231;-59
2020/12/22 01:34:52;;;;;;;0.60;0.47;;;18.00;61.60;;;;;;4983447;28;20254;-61
2020/12/22 01:37:18;;;;;;;0.40;0.40;;;18.10;61.10;;;;;;5009191;28;20574;-60
2020/12/22 01:39:44;;;;;;;0.80;0.30;;;18.00;61.50;;;;;;5000770;28;20238;-59
2020/12/22 01:42:13;;;;;;;0.20;0.20;;;18.00;61.50;;;;;;5011769;28;20234;-60
2020/12/22 01:44:40;;;;;;;0.50;0.30;;;18.00;61.60;;;;;;5000257;28;20219;-60
2020/12/22 01:47:08;;;;;;;0.97;0.40;;;18.00;61.70;;;;;;5008987;28;20967;-60
2020/12/22 01:49:35;;;;;;;0.50;0.50;;;18.00;61.90;;;;;;4999839;28;20695;-58
2020/12/22 01:52:02;;;;;;;0.50;0.40;;;18.00;61.80;;;;;;5008646;28;20231;-59
2020/12/22 01:54:30;;;;;;;0.40;0.40;;;18.00;61.70;;;;;;5003124;28;20227;-59
2020/12/22 01:56:57;;;;;;;0.40;0.23;;;18.00;61.80;;;;;;5008602;28;20223;-59
2020/12/22 01:59:24;;;;;;;0.40;0.30;;;18.00;61.80;;;;;;4998675;28;20238;-59
2020/12/22 02:01:52;;;;;;;2.10;0.40;;;18.00;61.70;;;;;;5004488;28;20254;-59
2020/12/22 02:04:21;;;;;;;0.50;0.37;;;18.00;61.90;;;;;;4999233;28;20223;-59
2020/12/22 02:06:47;;;;;;;0.50;0.33;;;18.00;61.70;;;;;;5006690;28;20227;-60
2020/12/22 02:09:14;;;;;;;0.40;0.30;;;18.00;62.00;;;;;;5006332;28;20760;-60
2020/12/22 02:11:41;;;;;;;0.63;0.40;;;18.00;62.00;;;;;;5008152;28;20230;-60
2020/12/22 02:14:09;;;;;;;0.67;0.60;;;18.00;62.10;;;;;;5007120;28;20715;-60
2020/12/22 02:16:38;;;;;;;0.73;0.40;;;18.00;62.10;;;;;;5011650;28;20223;-60
2020/12/22 02:19:22;;;;;;;0.70;0.40;;;18.00;62.40;;;;;;5026015;28;20226;-60
2020/12/22 02:21:48;;;;;;;0.50;0.43;;;18.00;62.10;;;;;;4999126;28;20242;-60
2020/12/22 02:24:15;;;;;;;0.80;0.50;;;18.00;62.00;;;;;;5006235;28;20241;-60
2020/12/22 02:26:42;;;;;;;0.90;0.50;;;18.00;61.80;;;;;;5012431;28;20254;-60
2020/12/22 02:29:08;;;;;;;0.53;0.30;;;18.00;62.20;;;;;;5006465;28;20223;-60
2020/12/22 02:31:35;;;;;;;1.10;0.60;;;18.00;62.30;;;;;;5005905;28;20699;-60
2020/12/22 02:34:01;;;;;;;0.97;0.30;;;18.00;62.20;;;;;;5004732;28;20604;-61
2020/12/22 02:36:27;;;;;;;0.60;0.30;;;18.00;62.20;;;;;;4999483;28;20254;-61
2020/12/22 02:38:54;;;;;;;0.70;0.30;;;18.00;62.70;;;;;;5006714;28;20710;-60
2020/12/22 02:41:20;;;;;;;1.73;0.40;;;18.00;62.50;;;;;;5004971;28;20227;-58
2020/12/22 02:43:46;;;;;;;0.50;0.30;;;18.00;62.80;;;;;;5006563;28;20227;-61
2020/12/22 02:46:13;;;;;;;1.30;0.40;;;17.90;62.80;;;;;;4997594;28;20215;-60
2020/12/22 02:48:39;;;;;;;0.63;0.40;;;18.00;63.00;;;;;;5006759;28;20219;-59
2020/12/22 02:51:06;;;;;;;1.60;0.40;;;17.90;62.70;;;;;;5015397;28;20706;-59
2020/12/22 02:53:32;;;;;;;0.93;0.50;;;18.00;62.70;;;;;;5027703;28;20214;-58
2020/12/22 02:55:58;;;;;;;1.57;0.40;;;18.00;63.00;;;;;;5025258;28;20223;-60
2020/12/22 02:58:25;;;;;;;0.50;0.40;;;18.00;62.80;;;;;;5019398;28;20261;-58
2020/12/22 03:00:51;;;;;;;1.57;0.57;;;18.00;63.00;;;;;;5005825;28;20573;-59
2020/12/22 03:03:18;;;;;;;0.70;0.40;;;18.00;63.00;;;;;;5018962;28;20767;-60
2020/12/22 03:05:44;;;;;;;0.90;0.40;;;17.90;63.30;;;;;;5026676;28;20868;-60
2020/12/22 03:08:10;;;;;;;0.60;0.50;;;17.90;63.10;;;;;;5020992;28;20222;-60
2020/12/22 03:10:37;;;;;;;0.30;0.30;;;17.90;63.00;;;;;;5027127;28;20640;-60
2020/12/22 03:13:04;;;;;;;0.30;0.27;;;17.90;63.00;;;;;;5020887;28;20597;-60
2020/12/22 03:15:30;;;;;;;1.57;0.40;;;18.00;63.00;;;;;;5025048;28;20219;-61
2020/12/22 03:17:57;;;;;;;0.47;0.40;;;17.90;63.00;;;;;;5018913;28;20237;-60
2020/12/22 03:20:24;;;;;;;0.50;0.40;;;17.90;62.80;;;;;;5027725;28;20231;-60
2020/12/22 03:22:51;;;;;;;1.17;0.50;;;18.00;62.90;;;;;;5020691;28;20846;-60
2020/12/22 03:25:18;;;;;;;0.80;0.30;;;18.00;62.80;;;;;;5027345;28;20218;-60
2020/12/22 03:27:44;;;;;;;2.33;0.40;;;18.00;63.10;;;;;;5017311;28;20574;-60
2020/12/22 03:30:13;;;;;;;1.27;0.37;;;18.00;63.00;;;;;;5024855;28;20226;-61
2020/12/22 03:32:39;;;;;;;0.87;0.37;;;18.00;63.00;;;;;;5025569;28;20227;-60
2020/12/22 03:35:07;;;;;;;0.40;0.30;;;18.00;63.50;;;;;;5021541;28;20224;-60
2020/12/22 03:37:33;;;;;;;0.77;0.60;;;18.00;62.50;;;;;;5004410;28;20584;-60
2020/12/22 03:40:00;;;;;;;1.63;0.50;;;18.00;62.80;;;;;;4999527;28;20227;-60
2020/12/22 03:42:27;;;;;;;0.50;0.30;;;18.00;63.30;;;;;;5009978;28;20234;-60
2020/12/22 03:44:54;;;;;;;1.27;0.40;;;18.00;63.10;;;;;;4999558;28;20230;-60
2020/12/22 03:47:21;;;;;;;0.70;0.40;;;17.90;62.80;;;;;;5007656;28;20235;-60
2020/12/22 03:49:47;;;;;;;0.80;0.40;;;18.00;63.00;;;;;;5005194;28;20270;-60
2020/12/22 03:52:14;;;;;;;0.37;0.30;;;18.00;63.00;;;;;;5005195;28;20235;-60
2020/12/22 03:54:40;;;;;;;0.90;0.40;;;17.90;63.00;;;;;;4998906;28;20227;-60
2020/12/22 03:57:07;;;;;;;0.77;0.67;;;17.90;63.00;;;;;;4989656;28;20581;-60
2020/12/22 03:59:34;;;;;;;0.87;0.40;;;18.00;63.20;;;;;;4976592;28;20235;-60
2020/12/22 04:02:01;;;;;;;0.47;0.40;;;18.00;62.80;;;;;;4982569;28;20258;-61
2020/12/22 04:04:27;;;;;;;0.57;0.43;;;17.90;63.00;;;;;;4978203;28;20248;-60
2020/12/22 04:06:53;;;;;;;0.43;0.30;;;17.90;63.30;;;;;;4985896;28;20228;-60
2020/12/22 04:09:21;;;;;;;0.80;0.40;;;18.00;63.20;;;;;;4983192;28;20759;-60
2020/12/22 04:11:49;;;;;;;0.50;0.40;;;18.00;63.20;;;;;;4990939;28;20227;-60
2020/12/22 04:14:16;;;;;;;0.97;0.40;;;18.00;63.20;;;;;;4984860;28;21081;-59
2020/12/22 04:16:43;;;;;;;0.40;0.40;;;18.00;63.40;;;;;;4975722;28;20242;-60
2020/12/22 04:19:10;;;;;;;0.50;0.50;;;17.90;63.10;;;;;;4986092;28;20243;-59
2020/12/22 04:21:37;;;;;;;0.77;0.30;;;18.00;63.10;;;;;;4980459;28;20242;-60
2020/12/22 04:24:05;;;;;;;0.53;0.30;;;18.00;63.30;;;;;;4997528;28;20252;-59
2020/12/22 04:26:32;;;;;;;0.63;0.33;;;18.00;63.10;;;;;;4980531;28;20706;-59
2020/12/22 04:28:58;;;;;;;0.20;0.20;;;18.00;63.40;;;;;;4996121;28;20226;-58
2020/12/22 04:31:25;;;;;;;1.07;0.53;;;18.00;63.20;;;;;;4987135;28;20238;-61
2020/12/22 04:33:52;;;;;;;0.30;0.30;;;18.00;63.30;;;;;;4997324;28;20227;-58
2020/12/22 04:36:20;;;;;;;0.87;0.50;;;18.00;63.20;;;;;;4983400;28;20248;-59
2020/12/22 04:38:47;;;;;;;0.30;0.30;;;18.00;62.80;;;;;;4984377;28;20732;-60
2020/12/22 04:41:15;;;;;;;1.07;0.30;;;18.00;62.80;;;;;;4978256;28;20228;-59
2020/12/22 04:43:42;;;;;;;1.00;0.30;;;18.00;62.80;;;;;;4987969;28;20764;-60
2020/12/22 04:46:09;;;;;;;0.70;0.30;;;18.00;62.90;;;;;;4981595;28;20220;-60
2020/12/22 04:48:40;;;;;;;0.90;0.30;;;18.00;62.40;;;;;;4992842;28;20227;-60
2020/12/22 04:51:08;;;;;;;1.03;0.60;;;18.00;62.40;;;;;;4993699;28;20230;-60
2020/12/22 04:53:35;;;;;;;0.43;0.30;;;18.00;62.40;;;;;;4981844;28;20224;-61
2020/12/22 04:56:04;;;;;;;0.40;0.30;;;18.00;62.50;;;;;;5019774;28;20630;-60
2020/12/22 04:58:31;;;;;;;0.30;0.30;;;18.00;62.30;;;;;;5014077;28;20223;-59
2020/12/22 05:00:58;;;;;;;0.60;0.20;;;18.00;62.30;;;;;;5007392;28;20230;-60
2020/12/22 05:03:24;;;;;;;0.70;0.40;;;18.00;62.30;;;;;;4996954;28;20602;-59
2020/12/22 05:05:51;;;;;;;0.43;0.20;;;18.10;62.00;;;;;;5009561;28;20242;-61
2020/12/22 05:08:19;;;;;;;1.67;0.43;;;18.00;62.50;;;;;;4998872;28;20227;-61
2020/12/22 05:10:46;;;;;;;0.50;0.30;;;18.00;62.40;;;;;;5010666;28;20230;-61
2020/12/22 05:13:14;;;;;;;0.40;0.20;;;18.10;61.90;;;;;;5001903;28;20728;-60
2020/12/22 05:15:48;;;;;;;0.40;0.30;;;18.00;61.80;;;;;;5008248;28;20238;-59
2020/12/22 05:18:15;;;;;;;0.47;0.40;;;18.10;62.10;;;;;;5006810;28;20221;-59
2020/12/22 05:20:44;;;;;;;0.40;0.30;;;18.00;62.10;;;;;;5007291;28;20235;-60
2020/12/22 05:23:18;;;;;;;0.93;0.40;;;18.00;61.90;;;;;;4996876;28;20232;-61
2020/12/22 05:25:46;;;;;;;0.50;0.30;;;18.10;62.20;;;;;;5008861;28;20238;-59
2020/12/22 05:28:14;;;;;;;0.50;0.20;;;18.00;62.00;;;;;;5001073;28;20710;-60
2020/12/22 05:30:42;;;;;;;0.20;0.20;;;18.10;62.00;;;;;;5009191;28;21347;-61
2020/12/22 05:33:09;;;;;;;0.80;0.27;;;18.10;62.10;;;;;;5003009;28;20219;-61
2020/12/22 05:35:46;;;;;;;1.10;0.27;;;18.00;62.10;;;;;;5027695;28;20683;-61
2020/12/22 05:38:18;;;;;;;0.37;0.30;;;18.10;62.00;;;;;;5017663;28;20233;-60
2020/12/22 05:40:45;;;;;;;0.47;0.23;;;18.10;61.90;;;;;;5029513;28;20226;-59
2020/12/22 05:43:12;;;;;;;0.27;0.20;;;18.10;62.90;;;;;;5023142;28;20571;-58
2020/12/22 05:45:43;;;;;;;0.90;0.30;;;18.10;62.10;;;;;;5028023;28;20730;-60
2020/12/22 05:48:18;;;;;;;0.50;0.20;;;18.10;62.00;;;;;;5029245;28;20246;-59
2020/12/22 05:50:50;;;;;;;0.57;0.40;;;18.10;62.10;;;;;;5022368;28;20245;-60
2020/12/22 05:53:23;;;;;;;1.50;0.50;;;18.10;62.60;;;;;;5028138;28;20576;-60
2020/12/22 05:55:49;;;;;;;0.50;0.20;;;18.10;62.00;;;;;;5019482;28;20243;-61
2020/12/22 05:58:18;;;;;;;0.30;0.20;;;18.10;61.90;;;;;;5026648;28;20272;-60
2020/12/22 06:00:48;;;;;;;0.43;0.30;;;18.10;62.40;;;;;;5020042;28;20219;-60
2020/12/22 06:03:15;;;;;;;1.07;0.50;;;18.10;62.10;;;;;;5023607;28;20522;-60
2020/12/22 06:05:44;;;;;;;0.33;0.30;;;18.10;62.40;;;;;;5019955;28;20223;-60
2020/12/22 06:08:17;;;;;;;0.60;0.50;;;18.10;62.40;;;;;;5028133;28;20230;-60
2020/12/22 06:10:44;;;;;;;0.60;0.40;;;18.10;62.10;;;;;;5020410;28;20270;-60
2020/12/22 06:13:12;;;;;;;0.47;0.40;;;18.10;62.10;;;;;;5026113;28;20306;-60
2020/12/22 06:15:39;;;;;;;0.73;0.20;;;18.10;62.10;;;;;;5021221;28;21401;-60
2020/12/22 06:18:06;;;;;;;0.37;0.27;;;18.10;62.30;;;;;;5008281;28;20231;-60
2020/12/22 06:20:33;;;;;;;2.23;0.30;;;18.10;62.00;;;;;;5020403;28;20219;-61
2020/12/22 06:23:07;;;;;;;0.60;0.40;;;18.10;62.10;;;;;;5028091;28;20742;-59
2020/12/22 06:25:34;;;;;;;0.30;0.30;;;18.10;62.10;;;;;;5018067;28;21254;-60
2020/12/22 06:28:14;;;;;;;0.83;0.10;;;18.10;62.20;;;;;;5026781;28;21120;-60
2020/12/22 06:30:40;;;;;;;0.30;0.30;;;18.10;62.20;;;;;;5019653;28;20609;-60
2020/12/22 06:33:26;;;;;;;0.30;0.30;;;18.10;62.00;;;;;;5025938;28;20692;-58
2020/12/22 06:36:03;;;;;;;0.90;0.30;;;18.10;62.30;;;;;;5018314;28;20223;-59
2020/12/22 06:38:53;;;;;;;0.87;0.40;;;18.10;62.30;;;;;;5026015;28;21923;-58
2020/12/22 06:41:32;;;;;;;0.30;0.23;;;18.10;62.10;;;;;;5019366;28;20673;-60
2020/12/22 06:44:26;;;;;;;0.33;0.30;;;18.10;62.10;;;;;;5024819;28;20245;-61
2020/12/22 06:46:59;;;;;;;0.30;0.30;;;18.10;62.20;;;;;;5012318;28;20353;-60
2020/12/22 06:49:54;;;;;;;0.40;0.30;;;18.10;62.10;;;;;;5025502;28;20219;-60
2020/12/22 06:52:30;;;;;;;0.40;0.30;;;18.10;62.50;;;;;;5018637;28;20560;-60
2020/12/22 06:54:57;;;;;;;0.37;0.30;;;18.10;62.10;;;;;;5024907;28;20244;-59
2020/12/22 06:57:59;;;;;;;0.47;0.30;;;18.10;62.20;;;;;;5019248;28;20709;-58
2020/12/22 07:00:29;;;;;;;0.43;0.37;;;18.10;62.20;;;;;;4946946;28;20373;-58
2020/12/22 07:03:15;;;;;;;0.73;0.40;;;18.10;62.40;;;;;;5011277;28;20762;-60
2020/12/22 07:05:47;;;;;;;0.27;0.27;;;18.10;62.30;;;;;;5025128;28;20683;-58
2020/12/22 07:08:14;;;;;;;0.23;0.20;;;18.10;62.20;;;;;;5018832;28;20218;-58
2020/12/22 07:10:50;;;;;;;0.10;0.10;;;18.10;62.30;;;;;;5029423;28;20262;-60
2020/12/22 07:13:18;;;;;;;0.60;0.30;;;18.20;62.60;;;;;;5015982;28;20222;-59
2020/12/22 07:15:49;;;;;;;0.53;0.40;;;18.10;62.40;;;;;;5027185;28;20833;-60
2020/12/22 07:18:26;;;;;;;0.20;0.17;;;18.10;62.40;;;;;;5017499;28;20234;-60
2020/12/22 07:20:53;;;;;;;0.30;0.30;;;18.20;62.20;;;;;;5023987;28;20238;-62
2020/12/22 07:23:20;;;;;;;0.53;0.30;;;18.10;62.20;;;;;;5008873;28;20223;-59
2020/12/22 07:25:46;;;;;;;0.40;0.30;;;18.20;62.40;;;;;;5020932;28;20235;-60
2020/12/22 07:28:21;;;;;;;1.77;0.37;;;18.20;62.40;;;;;;5013779;28;20218;-60
2020/12/22 07:30:47;;;;;;;0.90;0.40;;;18.10;62.20;;;;;;5020407;28;20237;-57
2020/12/22 07:33:13;;;;;;;0.30;0.10;;;18.20;62.40;;;;;;5021406;28;20226;-59
2020/12/22 07:35:49;;;;;;;0.57;0.30;;;18.10;62.50;;;;;;5014875;28;20250;-58
2020/12/22 07:38:16;;;;;;;0.30;0.30;;;18.10;62.20;;;;;;4987491;28;20281;-58
2020/12/22 07:40:43;;;;;;;0.40;0.37;;;18.10;62.40;;;;;;5023932;28;20260;-58
2020/12/22 07:43:11;;;;;;;1.47;0.20;;;18.20;62.50;;;;;;5014815;28;20235;-58
2020/12/22 07:46:01;;;;;;;0.77;0.30;;;18.10;62.40;;;;;;5024565;28;20235;-58
2020/12/22 07:48:31;;;;;;;0.70;0.30;;;18.10;62.60;;;;;;4982457;28;20753;-58
2020/12/22 07:51:03;;;;;;;0.50;0.30;;;18.10;62.40;;;;;;5025224;28;20243;-57
2020/12/22 07:53:29;;;;;;;0.80;0.20;;;18.10;62.50;;;;;;5020990;28;20313;-60
2020/12/22 07:56:03;;;;;;;0.97;0.33;;;18.10;62.40;;;;;;5020129;28;20230;-58
2020/12/22 07:58:32;;;;;;;1.13;0.40;;;18.10;62.20;;;;;;5020208;28;20758;-58
2020/12/22 08:01:01;;;;;;;0.67;0.27;;;18.10;62.60;;;;;;5007989;28;20229;-59
2020/12/22 08:03:28;;;;;;;0.53;0.33;;;18.10;62.90;;;;;;5009956;28;20265;-59
2020/12/22 08:05:59;;;;;;;2.00;0.30;;;18.10;62.90;;;;;;5004123;28;20223;-58
2020/12/22 08:08:25;;;;;;;1.90;0.30;;;18.10;62.90;;;;;;5022569;28;20234;-58
2020/12/22 08:10:52;;;;;;;0.30;0.20;;;18.10;62.60;;;;;;5019802;28;20234;-59
2020/12/22 08:13:23;;;;;;;0.60;0.40;;;18.10;62.30;;;;;;5020971;28;20605;-59
2020/12/22 08:15:49;;;;;;;0.80;0.30;;;18.10;62.30;;;;;;5016891;28;20215;-59
2020/12/22 08:18:21;;;;;;;1.40;0.47;;;18.20;62.30;;;;;;5016792;28;20238;-59
2020/12/22 08:20:48;;;;;;;0.60;0.40;;;18.20;62.50;;;;;;5016821;28;20242;-58
2020/12/22 08:23:17;;;;;;;0.53;0.37;;;18.10;62.60;;;;;;5022314;28;20242;-59
2020/12/22 08:25:46;;;;;;;1.70;0.50;;;18.10;62.90;;;;;;5014364;28;20218;-59
2020/12/22 08:28:21;;;;;;;0.40;0.30;;;18.10;63.20;;;;;;5022599;28;20962;-59
2020/12/22 08:30:47;;;;;;;0.73;0.30;;;18.10;63.00;;;;;;5013247;28;20234;-58
2020/12/22 08:33:18;;;;;;;0.60;0.60;;;18.10;62.70;;;;;;5011749;28;20222;-58
2020/12/22 08:35:48;;;;;;;0.93;0.40;;;18.10;62.90;;;;;;5000312;28;20735;-59
2020/12/22 08:38:23;;;;;;;3.53;0.40;;;18.20;63.10;;;;;;5011751;28;20475;-58
2020/12/22 08:40:51;;;;;;;1.03;0.40;;;18.10;62.90;;;;;;5003394;28;20421;-57
2020/12/22 08:43:20;;;;;;;0.33;0.30;;;18.20;62.80;;;;;;5011203;28;20226;-58
2020/12/22 08:45:46;;;;;;;0.87;0.50;;;18.20;62.60;;;;;;5004698;28;20238;-57
2020/12/22 08:48:13;;;;;;;1.73;0.30;;;18.20;62.90;;;;;;5012347;28;20703;-59
2020/12/22 08:50:52;;;;;;;0.70;0.43;;;18.10;62.60;;;;;;5012476;28;20234;-60
2020/12/22 08:53:35;;;;;;;1.40;0.50;;;18.20;62.70;;;;;;5022772;28;20595;-58
2020/12/22 08:56:09;;;;;;;0.93;0.50;;;18.10;62.80;;;;;;5026411;28;20238;-58
2020/12/22 08:58:50;;;;;;;0.73;0.50;;;18.20;62.60;;;;;;5007616;28;20235;-60
2020/12/22 09:01:27;;;;;;;1.30;0.63;;;18.20;62.60;;;;;;5028891;28;20241;-60
2020/12/22 09:03:58;;;;;;;9.23;0.70;;;18.20;62.90;;;;;;5025492;28;20232;-59
2020/12/22 09:06:35;;;;;;;0.77;0.50;;;18.20;63.30;;;;;;5021576;28;20222;-57
2020/12/22 09:09:16;;;;;;;1.63;0.60;;;18.20;63.20;;;;;;5025740;28;20231;-58
2020/12/22 09:11:47;;;;;;;2.47;0.87;;;18.20;62.90;;;;;;5026053;28;20231;-58
2020/12/22 09:14:19;;;;;;;2.53;0.40;;;18.20;63.30;;;;;;5022255;28;20234;-58
2020/12/22 09:16:56;;;;;;;1.43;0.70;;;18.20;63.40;;;;;;5025975;28;20246;-58
2020/12/22 09:19:45;;;;;;;1.23;0.77;;;18.20;63.20;;;;;;5016610;28;20773;-59
2020/12/22 09:22:13;;;;;;;1.40;0.87;;;18.20;62.90;;;;;;5024092;28;20893;-56
2020/12/22 09:24:39;;;;;;;1.13;0.50;;;18.10;63.10;;;;;;5021141;28;20234;-57
2020/12/22 09:27:13;;;;;;;1.70;0.80;;;18.20;62.90;;;;;;5028220;28;20222;-58
2020/12/22 09:29:41;;;;;;;0.87;0.50;;;18.20;63.10;;;;;;5015921;28;20245;-59
2020/12/22 09:32:10;;;;;;;1.53;0.57;;;18.20;63.20;;;;;;4998370;28;20226;-58
2020/12/22 09:34:38;;;;;;;1.43;0.60;;;18.20;63.20;;;;;;5015223;28;20211;-59
2020/12/22 09:37:08;;;;;;;8.73;1.07;;;18.20;63.40;;;;;;5020718;28;20451;-59
2020/12/22 09:39:36;;;;;;;6.00;0.90;;;18.20;64.40;;;;;;5017082;28;20237;-55
2020/12/22 09:42:03;;;;;;;4.77;0.93;;;18.20;64.10;;;;;;5024700;28;20226;-57
2020/12/22 09:44:30;;;;;;;5.03;1.33;;;18.30;63.90;;;;;;5017375;28;21288;-57
2020/12/22 09:46:57;;;;;;;3.53;0.70;;;18.30;63.70;;;;;;5026584;28;20249;-57
2020/12/22 09:49:26;;;;;;;8.40;0.90;;;18.30;63.50;;;;;;5011430;28;20295;-58
2020/12/22 09:51:53;;;;;;;2.47;0.80;;;18.30;63.50;;;;;;5028205;28;20238;-56
2020/12/22 09:54:20;;;;;;;4.33;1.47;;;18.30;63.70;;;;;;5022457;28;20226;-57
2020/12/22 09:56:48;;;;;;;9.40;1.10;;;18.30;64.00;;;;;;5027448;28;20222;-57
2020/12/22 09:59:15;;;;;;;7.37;1.57;;;18.30;63.80;;;;;;5016260;28;20695;-56
2020/12/22 10:01:42;;;;;;;6.70;1.03;;;18.30;64.40;;;;;;5026888;28;20304;-58
2020/12/22 10:04:10;;;;;;;6.13;1.03;;;18.30;63.70;;;;;;5005547;28;20235;-57
2020/12/22 10:06:36;;;;;;;3.27;1.10;;;18.30;63.60;;;;;;5021198;28;20609;-57
2020/12/22 10:09:03;;;;;;;2.83;1.30;;;18.30;63.40;;;;;;5027788;28;20218;-57
2020/12/22 10:11:34;;;;;;;4.83;0.90;;;18.30;63.50;;;;;;5019910;28;20226;-59
2020/12/22 10:14:02;;;;;;;4.63;1.13;;;18.30;63.40;;;;;;5024569;28;20599;-59
2020/12/22 10:16:28;;;;;;;4.73;1.00;;;18.30;63.30;;;;;;5021037;28;20227;-59
2020/12/22 10:18:55;;;;;;;1.47;0.80;;;18.30;63.20;;;;;;5026285;28;20226;-57
2020/12/22 10:21:23;;;;;;;7.30;1.00;;;18.30;63.20;;;;;;5017447;28;20238;-59
2020/12/22 10:23:50;;;;;;;2.53;0.80;;;18.30;63.20;;;;;;5026034;28;20235;-58
2020/12/22 10:26:20;;;;;;;5.37;1.30;;;18.30;63.20;;;;;;5017812;28;20222;-55
2020/12/22 10:28:49;;;;;;;3.57;0.97;;;18.30;63.10;;;;;;5025449;28;20709;-54
2020/12/22 10:31:20;;;;;;;3.13;0.80;;;18.30;63.10;;;;;;5018606;28;20226;-55
2020/12/22 10:33:47;;;;;;;4.20;0.90;;;18.30;63.10;;;;;;5024218;28;20254;-56
2020/12/22 10:36:18;;;;;;;2.33;1.00;;;18.30;63.00;;;;;;5017843;28;21423;-56
2020/12/22 10:38:52;;;;;;;3.37;0.97;;;18.40;63.10;;;;;;5024094;28;20245;-55
2020/12/22 10:41:19;;;;;;;2.97;1.10;;;18.30;62.90;;;;;;5019762;28;20636;-56
2020/12/22 10:43:49;;;;;;;2.07;0.80;;;18.30;62.90;;;;;;5023672;28;20233;-56
2020/12/22 10:46:16;;;;;;;1.83;0.83;;;18.40;63.00;;;;;;5017406;28;20230;-55
2020/12/22 10:48:46;;;;;;;1.67;0.90;;;18.40;62.80;;;;;;5024877;28;20230;-55
2020/12/22 10:51:13;;;;;;;1.67;0.90;;;18.40;62.70;;;;;;5017823;28;20226;-57
2020/12/22 10:53:42;;;;;;;1.60;0.97;;;18.40;62.70;;;;;;5026902;28;20231;-54
2020/12/22 10:56:11;;;;;;;2.73;0.80;;;18.40;62.70;;;;;;5020872;28;20304;-56
2020/12/22 10:58:38;;;;;;;2.33;1.10;;;18.40;62.70;;;;;;5023535;28;20226;-54
2020/12/22 11:01:04;;;;;;;1.50;0.90;;;18.30;62.60;;;;;;5026170;28;20229;-55
2020/12/22 11:03:31;;;;;;;2.40;1.10;;;18.30;62.60;;;;;;5018582;28;20234;-55
2020/12/22 11:08:43;;;;;;;2.63;1.17;;;18.40;62.60;;;;;;5022191;28;20875;-56
2020/12/22 11:11:10;;;;;;;2.03;1.20;;;18.40;62.50;;;;;;5021510;28;20265;-56
2020/12/22 11:13:37;;;;;;;1.43;1.00;;;18.40;62.80;;;;;;5016390;28;20230;-58
2020/12/22 11:16:07;;;;;;;2.13;1.00;;;18.40;62.60;;;;;;5022839;28;20265;-56
2020/12/22 11:18:40;;;;;;;1.57;1.00;;;18.40;62.50;;;;;;5014021;28;20234;-55
2020/12/22 11:21:12;;;;;;;2.73;1.00;;;18.40;62.50;;;;;;5026053;28;20230;-58
2020/12/22 11:23:44;;;;;;;1.57;1.00;;;18.40;62.40;;;;;;5022907;28;20229;-56
2020/12/22 11:26:19;;;;;;;3.20;1.03;;;18.40;62.40;;;;;;5026012;28;20227;-55
2020/12/22 11:28:45;;;;;;;3.30;1.20;;;18.40;62.30;;;;;;5021470;28;21813;-55
2020/12/22 11:31:12;;;;;;;4.23;1.03;;;18.40;62.30;;;;;;5026935;28;20250;-56
2020/12/22 11:33:41;;;;;;;2.50;1.10;;;18.40;62.80;;;;;;5018798;28;20234;-56
2020/12/22 11:36:15;;;;;;;46.97;8.53;;;18.40;63.00;;;;;;5022271;28;20284;-57
2020/12/22 11:38:42;;;;;;;37.47;6.50;;;18.50;63.70;;;;;;5017932;28;20315;-57
2020/12/22 11:41:09;;;;;;;32.80;6.90;;;18.50;63.80;;;;;;5029024;28;20231;-56
2020/12/22 11:43:35;;;;;;;37.97;6.60;;;18.50;64.30;;;;;;5015680;28;20243;-56
2020/12/22 11:46:05;;;;;;;26.13;5.60;;;18.50;64.40;;;;;;5025848;28;20223;-58
2020/12/22 11:48:37;;;;;;;34.77;5.80;;;18.50;64.30;;;;;;5002625;28;20233;-57
2020/12/22 11:51:04;;;;;;;19.50;5.10;;;18.50;64.00;;;;;;5026216;28;20235;-57
2020/12/22 11:53:31;;;;;;;21.40;4.73;;;18.50;63.80;;;;;;5014989;28;20238;-56
2020/12/22 11:55:57;;;;;;;15.63;4.60;;;18.50;63.60;;;;;;5025229;28;20227;-56
2020/12/22 11:58:23;;;;;;;18.00;4.57;;;18.50;63.50;;;;;;5026056;28;20227;-56
2020/12/22 12:00:49;;;;;;;10.20;4.03;;;18.50;63.40;;;;;;5017625;28;20606;-58
2020/12/22 12:03:16;;;;;;;15.50;4.10;;;18.50;63.30;;;;;;5025035;28;20231;-56
2020/12/22 12:05:42;;;;;;;13.93;3.50;;;18.50;63.10;;;;;;5015685;28;20233;-58
2020/12/22 12:08:09;;;;;;;14.00;3.63;;;18.50;63.20;;;;;;5023052;28;20242;-57
2020/12/22 12:10:35;;;;;;;11.10;2.97;;;18.50;63.10;;;;;;5018686;28;20686;-57
2020/12/22 12:13:01;;;;;;;9.20;3.30;;;18.50;63.00;;;;;;5024025;28;20738;-57
2020/12/22 12:15:27;;;;;;;12.50;2.97;;;18.50;62.90;;;;;;5020681;28;20222;-58
2020/12/22 12:17:53;;;;;;;8.53;2.77;;;18.50;63.00;;;;;;5024679;28;20222;-59
2020/12/22 12:20:23;;;;;;;5.10;2.50;;;18.50;62.90;;;;;;5017853;28;20223;-58
2020/12/22 12:22:51;;;;;;;5.33;2.47;;;18.50;62.90;;;;;;5026043;28;20238;-57
2020/12/22 12:25:17;;;;;;;9.07;2.57;;;18.50;62.80;;;;;;5017747;28;20222;-57
2020/12/22 12:27:44;;;;;;;8.97;2.40;;;18.50;62.80;;;;;;5023712;28;20225;-57
2020/12/22 12:30:10;;;;;;;6.40;2.17;;;18.50;62.70;;;;;;5015323;28;20219;-57
2020/12/22 12:32:36;;;;;;;5.90;2.20;;;18.50;62.80;;;;;;5021160;28;20237;-58
2020/12/22 12:35:03;;;;;;;6.00;2.07;;;18.50;62.70;;;;;;5022927;28;20219;-57
2020/12/22 12:37:30;;;;;;;7.30;2.10;;;18.50;62.70;;;;;;5009043;28;20215;-57
2020/12/22 12:39:56;;;;;;;4.63;1.73;;;18.50;62.70;;;;;;5022897;28;20248;-58
2020/12/22 12:42:27;;;;;;;4.17;1.77;;;18.50;62.60;;;;;;5013380;28;23816;-54
2020/12/22 12:44:53;;;;;;;2.90;1.57;;;18.50;63.30;;;;;;5025161;28;20215;-54
2020/12/22 12:47:20;;;;;;;2.43;1.40;;;18.90;63.80;;;;;;5020928;28;20219;-55
2020/12/22 12:49:46;;;;;;;1.93;1.20;;;19.40;63.10;;;;;;5026462;28;20227;-56
2020/12/22 12:52:13;;;;;;;3.30;1.30;;;19.70;62.80;;;;;;5016538;28;20235;-56
2020/12/22 12:54:39;;;;;;;3.57;1.17;;;20.00;61.60;;;;;;5019011;28;20223;-55
2020/12/22 12:57:06;;;;;;;1.80;0.93;;;20.20;61.00;;;;;;5015783;28;20234;-56